Time;durP1;ratioP1;P1;durP2;ratioP2;P2;SDS_P1;SDS_P2;PMS_P1;PMS_P2;Temp;Humidity;BMP_temperature;BMP_pressure;BME280_temperature;BME280_humidity;BME280_pressure;Samples;Min_cycle;Max_cycle;Signal;HPM_P1;HPM_P2
2022/06/19 00:02:18;;;;;;;68.07;64.77;;;;;;;30.43;32.32;100773.94;4977272;28;20059;-67
2022/06/19 00:04:46;;;;;;;66.43;63.22;;;;;;;30.39;32.38;100773.91;4977761;28;20277;-68
2022/06/19 00:07:12;;;;;;;68.55;64.50;;;;;;;30.33;32.04;100775.41;4977072;28;20086;-68
2022/06/19 00:09:37;;;;;;;67.15;63.85;;;;;;;30.29;32.17;100782.09;4977659;28;20031;-68
2022/06/19 00:12:04;;;;;;;68.50;65.30;;;;;;;30.25;32.46;100781.25;4977205;28;20033;-68
2022/06/19 00:14:30;;;;;;;65.72;62.42;;;;;;;30.22;31.93;100784.78;4976933;28;20375;-67
2022/06/19 00:16:55;;;;;;;67.32;63.83;;;;;;;30.16;32.05;100787.88;4959856;28;20081;-67
2022/06/19 00:19:20;;;;;;;68.60;65.25;;;;;;;30.13;32.08;100793.38;4976714;28;20034;-66
2022/06/19 00:21:47;;;;;;;66.72;63.33;;;;;;;30.08;32.21;100800.06;4959217;28;20460;-68
2022/06/19 00:24:12;;;;;;;65.55;62.53;;;;;;;30.03;32.24;100796.81;4976887;28;20431;-68
2022/06/19 00:26:38;;;;;;;65.18;61.63;;;;;;;29.98;32.33;100792.38;4977437;28;20027;-69
2022/06/19 00:29:04;;;;;;;69.70;66.22;;;;;;;29.95;32.25;100788.34;4977388;28;20031;-68
2022/06/19 00:31:29;;;;;;;64.70;61.40;;;;;;;29.90;32.44;100774.75;4975498;28;20043;-67
2022/06/19 00:33:55;;;;;;;65.50;62.20;;;;;;;29.86;31.99;100770.28;4976853;28;20031;-67
2022/06/19 00:36:21;;;;;;;64.80;61.70;;;;;;;29.81;32.17;100757.50;4977187;28;20027;-69
2022/06/19 00:38:50;;;;;;;65.03;61.53;;;;;;;29.75;31.95;100770.91;4977013;28;20033;-67
2022/06/19 00:41:15;;;;;;;63.97;60.97;;;;;;;29.70;31.80;100779.59;4976734;28;20053;-68
2022/06/19 00:43:54;;;;;;;63.70;60.20;;;;;;;29.65;32.09;100777.13;4960195;28;20070;-67
2022/06/19 00:46:58;;;;;;;63.75;60.30;;;;;;;29.61;32.27;100775.41;4976409;28;20142;-67
2022/06/19 00:49:39;;;;;;;63.05;59.95;;;;;;;29.54;31.75;100770.53;4976479;28;20108;-67
2022/06/19 00:52:17;;;;;;;63.47;60.47;;;;;;;29.49;31.92;100760.53;4976606;28;20022;-68
2022/06/19 00:54:48;;;;;;;60.45;57.55;;;;;;;29.45;31.84;100753.28;4976860;28;20430;-71
2022/06/19 00:57:16;;;;;;;62.15;59.08;;;;;;;29.40;31.72;100751.59;4976509;28;20038;-67
2022/06/19 00:59:50;;;;;;;64.00;60.75;;;;;;;29.37;31.68;100771.03;4976439;28;20038;-68
2022/06/19 01:02:16;;;;;;;60.28;57.47;;;;;;;29.28;31.81;100816.59;4976768;28;20046;-67
2022/06/19 01:04:53;;;;;;;60.22;57.22;;;;;;;29.22;31.75;100931.31;4959276;28;20097;-66
2022/06/19 01:07:22;;;;;;;59.38;56.53;;;;;;;29.14;31.54;100968.50;4976364;28;20034;-67
2022/06/19 01:09:48;;;;;;;61.30;58.20;;;;;;;29.06;31.84;100893.25;4976244;28;20533;-67
2022/06/19 01:12:14;;;;;;;66.82;63.40;;;;;;;29.00;31.67;100855.72;4958833;28;20081;-67
2022/06/19 01:14:43;;;;;;;58.70;55.75;;;;;;;28.96;31.92;100895.78;4976196;28;20031;-67
2022/06/19 01:17:11;;;;;;;59.33;56.50;;;;;;;28.90;31.91;100935.00;4976291;28;20034;-67
2022/06/19 01:19:41;;;;;;;59.28;56.20;;;;;;;28.86;31.08;100922.97;4976165;28;20034;-67
2022/06/19 01:22:20;;;;;;;60.38;57.10;;;;;;;28.79;31.40;100891.44;4975960;28;20198;-67
2022/06/19 01:25:16;;;;;;;61.28;58.15;;;;;;;28.69;31.81;100923.38;4975758;28;20082;-66
2022/06/19 01:30:34;;;;;;;60.58;57.58;;;;;;;28.53;30.97;100900.38;4976464;28;20383;-67
2022/06/19 01:33:03;;;;;;;58.08;54.92;;;;;;;28.45;31.27;100914.09;4975203;28;20038;-67
2022/06/19 01:35:33;;;;;;;60.67;57.72;;;;;;;28.41;30.95;100907.59;4958490;28;20111;-67
2022/06/19 01:38:02;;;;;;;57.03;54.33;;;;;;;28.34;31.62;100887.19;4975506;28;20483;-67
2022/06/19 01:40:31;;;;;;;58.72;55.75;;;;;;;28.30;30.91;100901.00;4975381;28;20427;-68
2022/06/19 01:42:57;;;;;;;59.67;56.53;;;;;;;28.24;31.26;100906.00;4975524;28;20027;-67
2022/06/19 01:45:23;;;;;;;59.50;56.40;;;;;;;28.20;30.73;100909.88;4975558;28;20435;-67
2022/06/19 01:47:49;;;;;;;57.35;54.35;;;;;;;28.16;31.28;100911.75;4976147;28;20039;-67
2022/06/19 01:50:23;;;;;;;60.83;57.75;;;;;;;28.13;31.10;100906.91;4975929;28;20416;-67
2022/06/19 01:52:53;;;;;;;58.53;55.63;;;;;;;28.05;31.23;100909.50;4975988;28;20034;-67
2022/06/19 01:55:20;;;;;;;57.83;54.60;;;;;;;28.03;30.92;100905.47;4975304;28;20027;-67
2022/06/19 01:57:50;;;;;;;55.05;52.22;;;;;;;28.00;30.96;100900.63;4976150;28;20035;-67
2022/06/19 02:00:20;;;;;;;58.78;55.40;;;;;;;27.97;31.06;100888.28;4975516;28;20460;-67
2022/06/19 02:03:10;;;;;;;55.17;52.45;;;;;;;27.90;30.72;100888.09;4975229;28;20464;-66
2022/06/19 02:05:39;;;;;;;56.33;53.53;;;;;;;27.81;31.01;100901.28;4967908;28;20046;-67
2022/06/19 02:08:05;;;;;;;55.83;53.03;;;;;;;27.77;31.24;100919.81;4975168;28;20491;-67
2022/06/19 02:10:31;;;;;;;54.50;51.28;;;;;;;27.75;30.64;100922.97;4975458;28;20411;-67
2022/06/19 02:12:59;;;;;;;56.17;53.17;;;;;;;27.72;29.95;100917.28;4973619;28;20034;-66
2022/06/19 02:15:25;;;;;;;54.38;51.78;;;;;;;27.66;30.65;100913.19;4975084;28;20022;-67
2022/06/19 02:17:53;;;;;;;57.55;54.30;;;;;;;27.59;30.81;100914.59;4973838;28;20125;-68
2022/06/19 02:20:20;;;;;;;55.40;52.50;;;;;;;27.57;30.18;100930.78;4975134;28;20463;-67
2022/06/19 02:22:46;;;;;;;55.33;52.67;;;;;;;27.54;30.66;100923.19;4975098;28;20450;-67
2022/06/19 02:25:12;;;;;;;58.72;55.92;;;;;;;27.52;30.29;100933.03;4974889;28;20114;-67
2022/06/19 02:27:38;;;;;;;53.28;50.47;;;;;;;27.50;29.27;100946.44;4974960;28;20043;-68
2022/06/19 02:30:06;;;;;;;53.15;50.60;;;;;;;27.44;30.16;100940.31;4974882;28;20034;-66
2022/06/19 02:32:34;;;;;;;;;;;;;;;27.36;30.33;100930.97;4975526;28;20034;-67
2022/06/19 02:35:00;;;;;;;50.38;48.03;;;;;;;27.31;29.91;100924.88;4974685;28;20008;-67
2022/06/19 02:37:30;;;;;;;51.83;49.33;;;;;;;27.23;29.95;100906.44;4973730;28;20114;-67
2022/06/19 02:40:09;;;;;;;52.17;49.08;;;;;;;27.18;29.70;100913.81;4975301;28;20106;-68
2022/06/19 02:42:40;;;;;;;51.42;48.70;;;;;;;27.15;29.13;100969.16;4973155;28;20459;-67
2022/06/19 02:45:18;;;;;;;51.95;49.55;;;;;;;27.05;29.67;101023.13;4974621;28;20031;-68
2022/06/19 02:47:45;;;;;;;51.08;48.22;;;;;;;26.99;29.43;101032.84;4975042;28;20030;-68
2022/06/19 02:50:17;;;;;;;51.58;48.97;;;;;;;26.94;29.82;100994.25;4974815;28;20039;-68
2022/06/19 02:52:43;;;;;;;50.70;48.08;;;;;;;26.89;29.44;100977.88;4975221;28;20035;-67
2022/06/19 02:55:09;;;;;;;52.80;50.22;;;;;;;26.85;29.95;100960.31;4974337;28;20039;-67
2022/06/19 02:57:35;;;;;;;49.20;46.85;;;;;;;26.80;29.88;100938.38;4974618;28;20486;-68
2022/06/19 03:00:01;;;;;;;50.65;47.28;;;;;;;26.77;30.38;100929.59;4974269;28;20368;-67
2022/06/19 03:02:28;;;;;;;50.17;47.78;;;;;;;26.74;30.45;100907.31;4974565;28;20070;-67
2022/06/19 03:04:57;;;;;;;48.95;46.55;;;;;;;26.70;30.80;100890.56;4974717;28;20026;-68
2022/06/19 03:07:25;;;;;;;52.22;49.63;;;;;;;26.69;30.42;100874.31;4974651;28;20031;-68
2022/06/19 03:09:50;;;;;;;51.60;49.03;;;;;;;26.68;30.52;100886.53;4974659;28;20043;-67
2022/06/19 03:12:16;;;;;;;50.90;47.92;;;;;;;26.65;30.65;100899.13;4974337;28;20031;-67
2022/06/19 03:14:42;;;;;;;50.25;47.65;;;;;;;26.61;30.92;100892.69;4956914;28;20081;-66
2022/06/19 03:17:07;;;;;;;50.08;47.47;;;;;;;26.59;30.21;100883.91;4974383;28;20078;-67
2022/06/19 03:19:34;;;;;;;51.25;48.65;;;;;;;26.56;30.68;100895.69;4974057;28;20034;-66
2022/06/19 03:21:59;;;;;;;51.17;48.47;;;;;;;26.49;30.34;100918.38;4973782;28;20449;-67
2022/06/19 03:24:26;;;;;;;50.92;47.95;;;;;;;26.44;30.55;100885.38;4974456;28;20066;-67
2022/06/19 03:26:52;;;;;;;49.88;47.47;;;;;;;26.39;30.04;100860.69;4974266;28;20045;-67
2022/06/19 03:29:17;;;;;;;51.25;48.20;;;;;;;26.34;30.45;100852.63;4974253;28;20488;-66
2022/06/19 03:31:43;;;;;;;51.22;47.92;;;;;;;26.30;30.41;100829.53;4974272;28;20038;-69
2022/06/19 03:34:08;;;;;;;50.70;48.30;;;;;;;26.26;30.36;100856.31;4974256;28;20085;-67
2022/06/19 03:36:34;;;;;;;49.15;46.75;;;;;;;26.20;30.40;100894.47;4956572;28;20031;-68
2022/06/19 03:38:59;;;;;;;49.65;47.35;;;;;;;26.17;30.64;100960.81;4973731;28;20037;-66
2022/06/19 03:41:24;;;;;;;48.78;46.38;;;;;;;26.12;29.98;100948.81;4973843;28;20065;-68
2022/06/19 03:43:50;;;;;;;48.85;46.22;;;;;;;26.09;29.75;100904.41;4974103;28;20472;-67
2022/06/19 03:46:18;;;;;;;51.50;48.88;;;;;;;26.04;30.20;100926.78;4974301;28;20102;-66
2022/06/19 03:48:50;;;;;;;49.00;46.40;;;;;;;26.00;30.07;100912.81;4957602;28;20352;-68
2022/06/19 03:51:17;;;;;;;48.72;46.33;;;;;;;25.97;29.43;100860.91;4974276;28;20042;-68
2022/06/19 03:53:45;;;;;;;48.03;45.63;;;;;;;25.89;29.78;100861.81;4974119;28;20031;-67
2022/06/19 03:56:15;;;;;;;50.78;48.25;;;;;;;25.86;29.84;100840.38;4977190;28;20415;-70
2022/06/19 03:58:46;;;;;;;45.17;42.78;;;;;;;25.81;29.46;100816.47;4978358;28;20070;-67
2022/06/19 04:01:15;;;;;;;47.55;45.20;;;;;;;25.78;28.47;100791.44;4978024;28;20126;-68
2022/06/19 04:03:41;;;;;;;45.92;43.72;;;;;;;25.70;28.37;100768.25;4978019;28;20047;-67
2022/06/19 04:06:09;;;;;;;48.47;45.47;;;;;;;25.64;28.06;100755.81;4977408;28;20035;-68
2022/06/19 04:08:35;;;;;;;46.70;44.35;;;;;;;25.55;28.08;100733.81;4977099;28;20031;-68
2022/06/19 04:11:00;;;;;;;45.83;43.22;;;;;;;25.46;28.77;100728.38;4977110;28;20084;-68
2022/06/19 04:13:26;;;;;;;46.83;44.33;;;;;;;25.41;29.01;100730.56;4977264;28;20038;-67
2022/06/19 04:15:51;;;;;;;46.75;44.38;;;;;;;25.35;29.15;100724.47;4977033;28;20096;-70
2022/06/19 04:18:16;;;;;;;46.60;44.03;;;;;;;25.29;28.45;100720.28;4976906;28;20031;-68
2022/06/19 04:20:42;;;;;;;45.15;42.83;;;;;;;25.20;28.80;100725.09;4976711;28;20046;-68
2022/06/19 04:23:09;;;;;;;45.40;42.97;;;;;;;25.16;29.21;100729.69;4976848;28;20030;-68
2022/06/19 04:25:35;;;;;;;44.15;42.03;;;;;;;25.16;29.29;100713.09;4976987;28;20488;-67
2022/06/19 04:28:00;;;;;;;45.03;42.83;;;;;;;25.16;28.93;100697.34;4976833;28;20035;-67
2022/06/19 04:30:26;;;;;;;45.08;42.78;;;;;;;25.12;27.08;100684.50;4976957;28;20035;-67
2022/06/19 04:32:51;;;;;;;46.58;44.05;;;;;;;25.02;27.36;100685.75;4977008;28;20090;-68
2022/06/19 04:35:17;;;;;;;43.08;40.85;;;;;;;24.89;27.49;100668.34;4976877;28;20081;-67
2022/06/19 04:37:43;;;;;;;43.72;41.33;;;;;;;24.82;28.73;100666.16;4976953;28;20531;-66
2022/06/19 04:40:10;;;;;;;43.47;41.05;;;;;;;24.80;28.52;100667.63;4959975;28;20479;-67
2022/06/19 04:42:35;;;;;;;43.78;41.58;;;;;;;24.77;27.59;100662.78;4976271;28;20387;-68
2022/06/19 04:45:01;;;;;;;45.22;42.58;;;;;;;24.70;29.08;100671.63;4959570;28;20035;-68
2022/06/19 04:47:26;;;;;;;44.05;41.85;;;;;;;24.68;29.31;100698.78;4976707;28;20066;-66
2022/06/19 04:49:51;;;;;;;43.22;41.03;;;;;;;24.69;29.52;100727.19;4976705;28;20038;-68
2022/06/19 04:52:17;;;;;;;44.00;41.15;;;;;;;24.69;29.40;100741.81;4976506;28;20383;-68
2022/06/19 04:54:44;;;;;;;42.22;40.22;;;;;;;24.73;28.68;100742.75;4975329;28;20070;-68
2022/06/19 04:57:09;;;;;;;44.58;41.30;;;;;;;24.71;28.85;100727.69;4976459;28;20423;-67
2022/06/19 04:59:35;;;;;;;44.20;41.60;;;;;;;24.66;29.44;100733.41;4975194;28;20460;-69
2022/06/19 05:02:00;;;;;;;43.03;41.03;;;;;;;24.63;29.43;100742.38;4976533;28;20395;-67
2022/06/19 05:04:25;;;;;;;44.00;41.42;;;;;;;24.61;29.04;100759.28;4975843;28;20430;-68
2022/06/19 05:06:51;;;;;;;43.50;41.30;;;;;;;24.60;29.13;100752.16;4975369;28;20030;-67
2022/06/19 05:09:16;;;;;;;43.05;40.65;;;;;;;24.58;29.91;100759.94;4959516;28;20055;-68
2022/06/19 05:11:42;;;;;;;41.75;39.65;;;;;;;24.58;29.68;100765.47;4976203;28;20491;-66
2022/06/19 05:14:07;;;;;;;40.28;38.38;;;;;;;24.61;30.07;100790.47;4976172;28;20043;-66
2022/06/19 05:16:33;;;;;;;43.33;40.83;;;;;;;24.65;29.92;100826.50;4976116;28;20483;-67
2022/06/19 05:18:59;;;;;;;43.28;41.17;;;;;;;24.69;30.29;100844.00;4976092;28;20038;-67
2022/06/19 05:21:26;;;;;;;44.25;42.03;;;;;;;24.71;30.47;100865.78;4976740;28;20058;-66
2022/06/19 05:23:53;;;;;;;42.13;40.00;;;;;;;24.73;30.24;100850.50;4975994;28;20038;-67
2022/06/19 05:26:20;;;;;;;42.13;40.13;;;;;;;24.75;30.52;100852.94;4976262;28;20035;-67
2022/06/19 05:28:48;;;;;;;42.30;39.90;;;;;;;24.77;30.52;100856.13;4975983;28;20035;-68
2022/06/19 05:31:14;;;;;;;42.23;39.90;;;;;;;24.79;30.48;100862.16;4976073;28;20041;-67
2022/06/19 05:33:39;;;;;;;45.30;43.00;;;;;;;24.80;30.79;100877.59;4975508;28;20463;-68
2022/06/19 05:36:05;;;;;;;42.95;40.40;;;;;;;24.80;30.66;100872.06;4975543;28;20085;-67
2022/06/19 05:38:31;;;;;;;43.53;41.40;;;;;;;24.80;31.00;100850.78;4975705;28;20538;-67
2022/06/19 05:40:58;;;;;;;40.80;38.78;;;;;;;24.81;30.82;100851.56;4975458;28;20069;-68
2022/06/19 05:43:25;;;;;;;42.83;40.77;;;;;;;24.81;30.26;100859.88;4975686;28;20031;-67
2022/06/19 05:45:53;;;;;;;42.15;39.75;;;;;;;24.80;30.50;100878.41;4975948;28;20043;-67
2022/06/19 05:48:19;;;;;;;42.20;40.20;;;;;;;24.80;31.09;100894.97;4975633;28;20033;-67
2022/06/19 05:50:44;;;;;;;42.05;39.60;;;;;;;24.82;30.42;100905.66;4975409;28;20263;-67
2022/06/19 05:53:10;;;;;;;40.25;38.25;;;;;;;24.79;30.37;100915.44;4975516;28;20060;-67
2022/06/19 05:55:35;;;;;;;40.55;38.47;;;;;;;24.79;30.87;100912.69;4975432;28;20031;-67
2022/06/19 05:58:01;;;;;;;42.15;39.95;;;;;;;24.79;30.81;100898.06;4975613;28;20471;-67
2022/06/19 06:00:26;;;;;;;43.20;40.88;;;;;;;24.77;30.55;100873.56;4975110;28;20038;-69
2022/06/19 06:02:52;;;;;;;43.08;41.00;;;;;;;24.75;30.54;100891.59;4974845;28;20537;-69
2022/06/19 06:05:17;;;;;;;42.58;40.47;;;;;;;24.75;30.48;100941.34;4975253;28;20070;-67
2022/06/19 06:07:42;;;;;;;42.72;40.72;;;;;;;24.74;31.00;100992.97;4975218;28;20522;-67
2022/06/19 06:10:10;;;;;;;42.58;40.28;;;;;;;24.74;30.78;101006.00;4975627;28;20035;-67
2022/06/19 06:12:35;;;;;;;43.50;41.20;;;;;;;24.73;30.84;101034.78;4975063;28;20049;-67
2022/06/19 06:15:00;;;;;;;41.35;39.22;;;;;;;24.74;30.92;101050.19;4975366;28;20026;-70
2022/06/19 06:17:26;;;;;;;42.80;40.63;;;;;;;24.73;30.39;101070.69;4974581;28;20027;-68
2022/06/19 06:19:51;;;;;;;42.55;40.17;;;;;;;24.71;30.61;101062.72;4957484;28;20046;-67
2022/06/19 06:22:17;;;;;;;41.53;39.53;;;;;;;24.71;30.64;101056.38;4975012;28;20027;-67
2022/06/19 06:24:42;;;;;;;41.95;39.65;;;;;;;24.68;30.79;101068.91;4975441;28;20104;-69
2022/06/19 06:27:07;;;;;;;42.63;40.30;;;;;;;24.67;31.09;101116.19;4974640;28;20477;-66
2022/06/19 06:29:33;;;;;;;41.67;39.67;;;;;;;24.66;30.59;101167.06;4973863;28;20415;-68
2022/06/19 06:31:59;;;;;;;40.83;38.83;;;;;;;24.63;31.22;101176.81;4975662;28;20057;-70
2022/06/19 06:34:25;;;;;;;42.30;39.95;;;;;;;24.63;30.75;101153.91;4975306;28;20035;-67
2022/06/19 06:36:50;;;;;;;41.03;38.92;;;;;;;24.60;31.07;101178.28;4975050;28;20364;-66
2022/06/19 06:39:16;;;;;;;43.28;40.65;;;;;;;24.59;31.23;101165.63;4974509;28;20038;-67
2022/06/19 06:41:41;;;;;;;45.60;42.95;;;;;;;24.59;31.95;101178.59;4974736;28;20061;-68
2022/06/19 06:44:12;;;;;;;43.20;41.10;;;;;;;24.59;32.24;101184.94;4974771;28;20109;-66
2022/06/19 06:46:38;;;;;;;43.25;40.88;;;;;;;24.58;31.97;101171.44;4975194;28;20035;-67
2022/06/19 06:49:04;;;;;;;43.25;41.05;;;;;;;24.56;32.35;101185.56;4974971;28;20340;-67
2022/06/19 06:51:31;;;;;;;44.47;41.85;;;;;;;24.56;32.55;101193.06;4975246;28;20125;-67
2022/06/19 06:53:58;;;;;;;43.03;40.83;;;;;;;24.55;33.16;101191.44;4973368;28;20452;-67
2022/06/19 06:56:25;;;;;;;43.63;41.13;;;;;;;24.55;33.23;101164.63;4974786;28;20041;-67
2022/06/19 06:58:51;;;;;;;43.17;40.78;;;;;;;24.54;33.47;101162.19;4973255;28;20463;-68
2022/06/19 07:01:19;;;;;;;43.38;40.88;;;;;;;24.52;33.35;101154.25;4974287;28;20035;-66
2022/06/19 07:03:52;;;;;;;43.00;40.33;;;;;;;24.52;33.90;101159.78;4974827;28;20058;-68
2022/06/19 07:06:17;;;;;;;42.15;39.65;;;;;;;24.51;33.91;101191.28;4975025;28;20094;-68
2022/06/19 07:08:42;;;;;;;43.10;40.83;;;;;;;24.50;34.08;101213.72;4975174;28;20490;-67
2022/06/19 07:11:32;;;;;;;42.33;40.20;;;;;;;24.49;33.89;101223.91;4974429;28;20039;-67
2022/06/19 07:13:58;;;;;;;41.50;39.35;;;;;;;24.46;33.69;101221.81;4974674;28;20038;-65
2022/06/19 07:16:23;;;;;;;42.08;39.78;;;;;;;24.45;34.22;101203.63;4974434;28;20034;-66
2022/06/19 07:18:49;;;;;;;40.45;38.35;;;;;;;24.44;34.05;101173.53;4974332;28;20042;-68
2022/06/19 07:21:15;;;;;;;42.47;40.20;;;;;;;24.41;34.33;101159.25;4974893;28;20054;-68
2022/06/19 07:23:40;;;;;;;42.45;40.30;;;;;;;24.40;34.48;101131.97;4974142;28;20050;-67
2022/06/19 07:26:15;;;;;;;42.15;40.03;;;;;;;24.39;35.16;101097.22;4974303;28;20030;-66
2022/06/19 07:28:41;;;;;;;42.28;39.85;;;;;;;24.35;34.88;101080.50;4974526;28;20034;-66
2022/06/19 07:31:07;;;;;;;41.33;39.33;;;;;;;24.33;34.91;101043.31;4977281;28;20062;-66
2022/06/19 07:33:37;;;;;;;41.63;39.42;;;;;;;24.31;35.31;100979.34;4977795;28;20031;-67
2022/06/19 07:36:04;;;;;;;41.58;39.55;;;;;;;24.26;35.59;100927.88;4978038;28;20038;-66
2022/06/19 07:38:29;;;;;;;42.05;39.75;;;;;;;24.23;35.47;100894.59;4977971;28;20113;-70
2022/06/19 07:40:55;;;;;;;41.08;39.03;;;;;;;24.18;35.69;100871.56;4977956;28;20122;-66
2022/06/19 07:43:20;;;;;;;41.03;39.03;;;;;;;24.13;36.02;100869.00;4960600;28;20031;-67
2022/06/19 07:45:46;;;;;;;41.92;39.63;;;;;;;24.08;36.68;100887.69;4978074;28;20035;-68
2022/06/19 07:50:55;;;;;;;39.85;37.67;;;;;;;24.02;36.92;100972.59;4978250;28;20049;-67
2022/06/19 07:53:21;;;;;;;41.70;39.50;;;;;;;23.97;37.44;101017.72;4977750;28;20038;-67
2022/06/19 07:55:46;;;;;;;42.05;39.45;;;;;;;23.94;36.91;101064.47;4978070;28;20035;-66
2022/06/19 07:58:12;;;;;;;41.15;39.05;;;;;;;23.94;37.03;101161.06;4978042;28;20038;-66
2022/06/19 08:00:38;;;;;;;42.38;39.95;;;;;;;23.93;37.09;101185.03;4976308;28;20031;-67
2022/06/19 08:03:05;;;;;;;41.88;39.67;;;;;;;23.95;37.46;101143.34;4977514;28;20062;-67
2022/06/19 08:05:32;;;;;;;41.97;39.80;;;;;;;23.96;37.29;101120.13;4977314;28;20055;-67
2022/06/19 08:07:59;;;;;;;41.05;38.90;;;;;;;23.96;37.65;101132.00;4976343;28;20367;-67
2022/06/19 08:10:28;;;;;;;40.80;38.60;;;;;;;23.97;37.22;101149.38;4977058;28;20054;-67
2022/06/19 08:12:54;;;;;;;40.88;38.65;;;;;;;23.96;37.62;101129.25;4977418;28;20397;-67
2022/06/19 08:15:20;;;;;;;41.08;38.88;;;;;;;23.97;37.69;101113.50;4976911;28;20379;-67
2022/06/19 08:17:46;;;;;;;41.08;38.97;;;;;;;23.95;37.88;101093.69;4977130;28;20037;-66
2022/06/19 08:20:13;;;;;;;42.20;39.83;;;;;;;23.95;37.52;101074.38;4977686;28;20517;-67
2022/06/19 08:22:40;;;;;;;43.15;40.88;;;;;;;23.93;37.68;101068.38;4976938;28;20103;-66
2022/06/19 08:25:07;;;;;;;39.78;37.58;;;;;;;23.91;37.97;101070.63;4976801;28;20499;-67
2022/06/19 08:27:36;;;;;;;41.58;39.25;;;;;;;23.91;38.27;101065.13;4976967;28;20042;-68
2022/06/19 08:30:05;;;;;;;41.58;39.28;;;;;;;23.89;37.87;101046.16;4977045;28;20029;-68
2022/06/19 08:32:31;;;;;;;42.33;40.22;;;;;;;23.86;37.91;101030.22;4976751;28;20027;-68
2022/06/19 08:34:56;;;;;;;40.05;37.80;;;;;;;23.85;38.00;101016.78;4976738;28;20045;-67
2022/06/19 08:37:21;;;;;;;39.83;37.53;;;;;;;23.82;37.84;101009.16;4976661;28;20058;-67
2022/06/19 08:39:47;;;;;;;41.85;39.55;;;;;;;23.81;38.16;101010.28;4977365;28;20039;-70
2022/06/19 08:42:44;;;;;;;40.55;38.53;;;;;;;23.78;38.52;100994.38;4975544;28;20459;-67
2022/06/19 08:45:28;;;;;;;39.50;37.30;;;;;;;23.75;38.48;100993.88;4976738;28;20057;-68
2022/06/19 08:48:15;;;;;;;39.72;37.55;;;;;;;23.72;38.30;100975.25;4976746;28;20114;-67
2022/06/19 08:51:00;;;;;;;42.88;40.75;;;;;;;23.69;38.27;100973.13;4976934;28;20101;-68
2022/06/19 08:53:32;;;;;;;40.58;38.10;;;;;;;23.69;38.62;100961.28;4976591;28;20085;-68
2022/06/19 08:56:29;;;;;;;40.78;38.47;;;;;;;23.68;39.09;100965.16;4976354;28;20023;-67
2022/06/19 08:59:01;;;;;;;39.78;37.67;;;;;;;23.65;38.61;100947.31;4976638;28;20078;-68
2022/06/19 09:01:27;;;;;;;39.65;37.55;;;;;;;23.64;39.05;100942.94;4976096;28;20526;-68
2022/06/19 09:07:21;;;;;;;40.33;38.17;;;;;;;23.61;39.62;100953.78;4976493;28;20094;-67
2022/06/19 09:10:13;;;;;;;40.75;38.55;;;;;;;23.60;39.19;100954.94;4976538;28;20031;-68
2022/06/19 09:12:52;;;;;;;41.10;38.90;;;;;;;23.57;39.34;100989.50;4976054;28;20467;-67
2022/06/19 09:15:25;;;;;;;41.28;39.17;;;;;;;23.58;39.51;101042.69;4976299;28;20073;-68
2022/06/19 09:18:10;;;;;;;40.70;38.60;;;;;;;23.58;39.55;101082.09;4975904;28;20143;-68
2022/06/19 09:20:51;;;;;;;38.53;36.42;;;;;;;23.60;39.26;101095.56;4975907;28;20022;-68
2022/06/19 09:23:20;;;;;;;39.58;37.25;;;;;;;23.62;38.98;101093.31;4975406;28;20030;-68
2022/06/19 09:26:07;;;;;;;41.28;38.72;;;;;;;23.64;38.89;101097.38;4976062;28;20057;-68
2022/06/19 09:28:36;;;;;;;40.70;38.22;;;;;;;23.65;38.63;101082.44;4976207;28;20045;-68
2022/06/19 09:31:09;;;;;;;38.88;36.90;;;;;;;23.66;39.10;101083.25;4975876;28;20030;-67
2022/06/19 09:33:57;;;;;;;40.08;37.78;;;;;;;23.68;38.70;101087.31;4975745;28;20031;-67
2022/06/19 09:36:27;;;;;;;39.67;37.78;;;;;;;23.70;38.77;101067.69;4975385;28;20058;-67
2022/06/19 09:39:00;;;;;;;40.80;38.60;;;;;;;23.71;38.43;101050.81;4975694;28;20041;-68
2022/06/19 09:41:40;;;;;;;40.78;38.53;;;;;;;23.73;38.43;101042.25;4975693;28;20027;-67
2022/06/19 09:44:16;;;;;;;39.40;36.45;;;;;;;23.74;38.76;101039.16;4975662;28;20029;-67
2022/06/19 09:46:46;;;;;;;40.38;37.75;;;;;;;23.75;38.46;101032.50;4975138;28;20034;-68
2022/06/19 09:49:35;;;;;;;38.72;36.55;;;;;;;23.78;38.53;101030.25;4975197;28;20031;-66
2022/06/19 09:52:18;;;;;;;38.83;36.63;;;;;;;23.78;38.27;101022.78;4975399;28;20026;-68
2022/06/19 09:54:52;;;;;;;39.63;36.92;;;;;;;23.80;38.55;101016.94;4976049;28;20023;-68
2022/06/19 09:57:17;;;;;;;38.90;36.70;;;;;;;23.80;38.35;101014.19;4975432;28;20027;-68
2022/06/19 09:59:54;;;;;;;39.92;37.97;;;;;;;23.79;38.24;101026.34;4975510;28;20029;-68
2022/06/19 10:02:26;;;;;;;38.80;36.70;;;;;;;23.80;37.91;101026.00;4975423;28;20101;-67
2022/06/19 10:05:38;;;;;;;40.97;38.67;;;;;;;23.81;38.29;101026.81;4975199;28;20102;-67
2022/06/19 10:08:08;;;;;;;38.50;36.60;;;;;;;23.81;38.42;100994.53;4973796;28;20043;-68
2022/06/19 10:10:45;;;;;;;37.78;35.85;;;;;;;23.83;38.36;100989.50;4974863;28;20026;-68
2022/06/19 10:13:30;;;;;;;38.25;36.05;;;;;;;23.82;37.90;100987.09;4975119;28;20032;-69
2022/06/19 10:15:58;;;;;;;40.85;38.53;;;;;;;23.83;38.21;100972.16;4975779;28;20026;-69
2022/06/19 10:18:37;;;;;;;37.65;35.65;;;;;;;23.83;38.21;100956.41;4975007;28;20030;-70
2022/06/19 10:21:02;;;;;;;37.45;35.45;;;;;;;23.82;38.00;100949.28;4974601;28;20022;-72
2022/06/19 10:23:40;;;;;;;39.00;37.00;;;;;;;23.84;37.93;100957.19;4974784;28;20169;-70
2022/06/19 10:26:34;;;;;;;37.22;35.45;;;;;;;23.84;37.42;100948.94;4975594;28;20094;-68
2022/06/19 10:29:12;;;;;;;39.72;37.67;;;;;;;23.84;37.42;100946.16;4975023;28;20510;-68
2022/06/19 10:32:19;;;;;;;38.10;36.15;;;;;;;23.87;37.66;100956.56;4974766;28;20452;-69
2022/06/19 10:34:53;;;;;;;38.75;36.90;;;;;;;23.89;37.66;100948.75;4915123;29;20068;-69
2022/06/19 10:37:56;;;;;;;37.30;35.28;;;;;;;23.91;37.72;100935.44;4966217;28;20039;-66
2022/06/19 10:40:39;;;;;;;38.17;35.97;;;;;;;23.92;37.65;100948.94;4944576;28;20035;-66
2022/06/19 10:43:10;;;;;;;38.72;36.83;;;;;;;23.95;37.63;100964.81;4974671;28;20056;-68
2022/06/19 10:45:44;;;;;;;38.25;36.22;;;;;;;23.97;37.58;100981.84;4974529;28;20038;-67
2022/06/19 10:48:23;;;;;;;39.22;37.13;;;;;;;24.00;37.06;100998.91;4974834;28;20053;-66
2022/06/19 10:50:51;;;;;;;39.85;37.65;;;;;;;24.01;37.12;101006.03;4974293;28;20435;-71
2022/06/19 10:53:32;;;;;;;38.22;36.33;;;;;;;24.04;37.05;101011.72;4973319;28;20090;-69
2022/06/19 10:56:15;;;;;;;39.05;37.05;;;;;;;24.08;37.08;101006.34;4974776;28;20023;-68
2022/06/19 10:58:41;;;;;;;40.35;37.83;;;;;;;24.09;37.45;101017.06;4974603;28;20027;-69
2022/06/19 11:01:08;;;;;;;39.95;37.65;;;;;;;24.13;37.52;101029.06;4974804;28;20027;-69
2022/06/19 11:06:34;;;;;;;40.35;38.05;;;;;;;24.18;36.95;101012.31;4979052;28;20356;-68
2022/06/19 11:09:20;;;;;;;40.80;38.60;;;;;;;24.22;36.86;101011.66;4978521;28;20077;-67
2022/06/19 11:11:48;;;;;;;40.95;38.42;;;;;;;24.24;37.15;101014.91;4978528;28;20019;-70
2022/06/19 11:14:36;;;;;;;38.95;37.03;;;;;;;24.27;37.02;101031.63;4977165;28;20374;-72
2022/06/19 11:17:12;;;;;;;43.08;40.50;;;;;;;24.29;37.46;101028.53;4978482;28;20038;-69
2022/06/19 11:19:48;;;;;;;41.13;39.10;;;;;;;24.31;37.36;101040.88;4978778;28;20023;-71
2022/06/19 11:22:25;;;;;;;39.95;37.88;;;;;;;24.33;37.28;101035.84;4978378;28;20050;-69
2022/06/19 11:24:52;;;;;;;42.13;39.78;;;;;;;24.34;37.35;101047.69;4977057;28;20030;-70
2022/06/19 11:27:26;;;;;;;40.97;39.03;;;;;;;24.36;37.29;101050.94;4978397;28;20403;-69
2022/06/19 11:29:55;;;;;;;42.83;40.53;;;;;;;24.39;37.82;101050.25;4978153;28;20022;-71
2022/06/19 11:32:25;;;;;;;;;;;;;;;24.41;37.34;101046.03;4979097;28;20038;-69
2022/06/19 11:34:55;;;;;;;42.25;39.70;;;;;;;24.43;37.86;101055.97;4977710;28;19906;-68